Chisineu Cris, Romania

10:58 PM EEST on August 24, 2016 (GMT +0300)
Selyem utca | | Change Station

Elev 278 ft 46.65 °N, 21.25 °E | Updated 1 minute ago

Clear
Clear
70.2 °F
Feels Like 75 °F
N
0.6
Wind Variable Wind from NW
Gusts 1.2 mph

Today
High -- | Low -- °F
--% Chance of Precip.
Yesterday
High -- | Low -- °F
Precip. -- in
Pressure 30.12 in
Visibility -9999.0 miles
Clouds
Heat Index 75 °F
Dew Point 59 °F
Humidity 67%
Rainfall 0.00 in
Snow Depth Not available.
6:44 AM 8:27 PM
Waning Gibbous, 54% visible
METAR LRAR 241900Z 33006KT CAVOK 20/16 Q1020
Pressure 30.12 in
Visibility -9999.0 miles
Clouds
Heat Index 75 °F
Dew Point 59 °F
Humidity 67%
Rainfall 0.00 in
Snow Depth Not available.
6:44 AM 8:27 PM
Waning Gibbous, 54% visible
METAR LRAR 241900Z 33006KT CAVOK 20/16 Q1020

10-Day Weather Forecast

×

Almanac

Astronomy

Aug. 24, 2016 Rise Set
Actual Time
Civil Twilight
Nautical Twilight
Astronomical Twilight
Moon
Length of Visible Light
Length of Day
Tomorrow will be .
, % of the Moon is Illuminated

Today's Extremes

Country Highs Country Lows

Community

WunderPhotos

Upload Photos

1,934,690 photos uploaded!

WunderBlog® & News

Nearby

Air Quality

  Air Quality AQ Index Pollutant
Not available.

Snow Depth

Station Depth Elevation

Earthquake Activity

City Distance Mag. Time & Date
Minimum magnitude displayed is 2.5.

Coastal Water Temperatures

Place Temperature

Stations

Nearby Weather Stations

Station Location Temp. Windchill Dew Point Humidity Wind Precip. Elev Updated Type